Time;durP1;ratioP1;P1;durP2;ratioP2;P2;SDS_P1;SDS_P2;PMS_P1;PMS_P2;Temp;Humidity;BMP_temperature;BMP_pressure;BME280_temperature;BME280_humidity;BME280_pressure;Samples;Min_cycle;Max_cycle;Signal;HPM_P1;HPM_P2
2023/05/13 00:01:41;;;;;;;2.50;1.73;;;20.30;62.50;;;;;;4988687;28;20033;-50
2023/05/13 00:04:07;;;;;;;2.00;1.80;;;20.30;62.50;;;;;;4989276;28;20034;-52
2023/05/13 00:06:33;;;;;;;2.45;2.10;;;20.30;62.50;;;;;;4987112;28;20549;-50
2023/05/13 00:08:59;;;;;;;2.78;1.95;;;20.20;62.40;;;;;;4988098;28;20297;-52
2023/05/13 00:11:25;;;;;;;2.83;1.85;;;20.20;62.50;;;;;;4981842;28;20026;-54
2023/05/13 00:13:50;;;;;;;2.58;1.70;;;20.20;62.40;;;;;;4986472;28;20489;-53
2023/05/13 00:16:16;;;;;;;3.85;2.15;;;20.20;62.40;;;;;;4992506;28;20026;-52
2023/05/13 00:18:41;;;;;;;3.15;2.17;;;20.20;62.40;;;;;;4988158;28;20092;-50
2023/05/13 00:21:07;;;;;;;2.78;2.00;;;20.20;62.40;;;;;;4985915;28;20026;-55
2023/05/13 00:23:33;;;;;;;3.05;1.90;;;20.20;62.40;;;;;;4988087;28;20485;-52
2023/05/13 00:25:59;;;;;;;3.63;2.10;;;20.20;62.40;;;;;;4986814;28;20096;-50
2023/05/13 00:28:24;;;;;;;2.13;1.73;;;20.20;62.40;;;;;;4986977;28;20034;-54
2023/05/13 00:30:50;;;;;;;3.42;2.05;;;20.20;62.40;;;;;;4984106;28;20062;-59
2023/05/13 00:33:16;;;;;;;2.30;1.98;;;20.20;62.40;;;;;;4987135;28;20030;-50
2023/05/13 00:35:42;;;;;;;2.22;1.70;;;20.20;62.40;;;;;;4984344;28;20041;-50
2023/05/13 00:38:07;;;;;;;1.92;1.73;;;20.20;62.40;;;;;;4988334;28;20096;-51
2023/05/13 00:40:37;;;;;;;2.80;2.17;;;20.20;63.00;;;;;;4990319;28;20053;-52
2023/05/13 00:43:02;;;;;;;1.83;1.73;;;20.20;62.40;;;;;;4992573;28;20061;-52
2023/05/13 00:45:28;;;;;;;2.58;2.00;;;20.20;62.40;;;;;;4989838;28;20026;-51
2023/05/13 00:47:53;;;;;;;1.98;1.73;;;20.20;62.30;;;;;;4986036;28;20396;-50
2023/05/13 00:50:19;;;;;;;1.77;1.67;;;20.20;62.30;;;;;;4986075;28;20045;-50
2023/05/13 00:52:45;;;;;;;2.67;2.15;;;20.20;62.30;;;;;;4986543;28;20081;-54
2023/05/13 00:55:11;;;;;;;3.05;1.70;;;20.20;62.30;;;;;;4984288;28;20045;-49
2023/05/13 00:57:38;;;;;;;1.80;1.60;;;20.20;62.30;;;;;;4984704;28;20038;-49
2023/05/13 01:00:05;;;;;;;1.88;1.70;;;20.20;62.30;;;;;;4987579;28;20042;-49
2023/05/13 01:03:06;;;;;;;1.60;1.50;;;20.20;62.30;;;;;;4987716;28;20034;-53
2023/05/13 01:06:07;;;;;;;2.50;2.10;;;20.20;62.20;;;;;;4970904;28;20044;-50
2023/05/13 01:08:59;;;;;;;2.00;1.80;;;20.20;62.20;;;;;;4969434;28;20038;-50
2023/05/13 01:11:29;;;;;;;2.05;1.85;;;20.20;62.20;;;;;;4985303;28;20030;-51
2023/05/13 01:14:07;;;;;;;2.03;1.90;;;20.20;62.20;;;;;;4991563;28;20067;-52
2023/05/13 01:16:49;;;;;;;2.30;1.63;;;20.20;62.20;;;;;;4994813;28;20034;-51
2023/05/13 01:19:37;;;;;;;2.10;1.70;;;20.20;62.20;;;;;;4983189;28;20022;-50
2023/05/13 01:22:04;;;;;;;2.58;1.60;;;20.20;62.20;;;;;;4974851;28;20484;-51
2023/05/13 01:24:30;;;;;;;2.17;1.60;;;20.20;62.20;;;;;;4986839;28;20364;-56
2023/05/13 01:26:55;;;;;;;3.15;2.33;;;20.20;62.20;;;;;;4986195;28;20056;-52
2023/05/13 01:29:21;;;;;;;1.92;1.73;;;20.20;62.20;;;;;;4987877;28;20117;-54
2023/05/13 01:31:49;;;;;;;2.67;2.03;;;20.20;62.20;;;;;;4988598;28;20057;-51
2023/05/13 01:34:15;;;;;;;2.10;1.90;;;20.20;62.20;;;;;;4982897;28;20713;-50
2023/05/13 01:36:42;;;;;;;2.22;2.00;;;20.20;62.20;;;;;;4986558;28;20439;-53
2023/05/13 01:39:08;;;;;;;1.80;1.70;;;20.20;62.20;;;;;;4987115;28;20878;-50
2023/05/13 01:41:34;;;;;;;2.92;1.75;;;20.20;62.20;;;;;;4988985;28;20037;-54
2023/05/13 01:43:59;;;;;;;1.70;1.60;;;20.20;62.10;;;;;;4978499;28;20030;-50
2023/05/13 01:46:25;;;;;;;1.90;1.80;;;20.20;62.10;;;;;;4988777;28;20030;-52
2023/05/13 01:48:50;;;;;;;1.80;1.70;;;20.20;62.10;;;;;;4990951;28;20030;-51
2023/05/13 01:51:16;;;;;;;1.63;1.52;;;20.20;62.20;;;;;;4989467;28;20053;-56
2023/05/13 01:53:41;;;;;;;1.88;1.77;;;20.20;62.10;;;;;;4988882;28;20559;-50
2023/05/13 01:56:10;;;;;;;2.15;1.95;;;20.20;62.10;;;;;;4988997;28;20721;-56
2023/05/13 01:58:35;;;;;;;2.38;1.73;;;20.10;62.00;;;;;;4989078;28;20018;-49
2023/05/13 02:01:02;;;;;;;1.95;1.77;;;20.20;62.10;;;;;;4987599;28;20240;-55
2023/05/13 02:03:28;;;;;;;2.55;2.05;;;20.10;62.00;;;;;;4987407;28;20120;-52
2023/05/13 02:05:54;;;;;;;1.65;1.55;;;20.10;62.00;;;;;;4987614;28;20130;-53
2023/05/13 02:08:21;;;;;;;1.90;1.80;;;20.10;62.00;;;;;;4985030;28;20201;-50
2023/05/13 02:10:54;;;;;;;3.30;1.83;;;20.10;62.10;;;;;;4988186;28;20643;-50
2023/05/13 02:13:20;;;;;;;2.67;1.77;;;20.10;62.10;;;;;;5003559;23;20069;-55
2023/05/13 02:15:45;;;;;;;2.38;1.80;;;20.10;62.00;;;;;;4982165;28;20212;-54
2023/05/13 02:18:11;;;;;;;1.67;1.58;;;20.10;62.10;;;;;;4985408;28;20533;-50
2023/05/13 02:20:36;;;;;;;2.00;1.83;;;20.10;62.10;;;;;;4987381;28;20038;-52
2023/05/13 02:23:02;;;;;;;2.28;1.80;;;20.10;62.10;;;;;;4993207;28;20550;-48
2023/05/13 02:25:27;;;;;;;2.28;1.90;;;20.10;62.10;;;;;;4986818;28;20037;-54
2023/05/13 02:27:53;;;;;;;1.92;1.60;;;20.10;62.10;;;;;;4986672;28;20168;-52
2023/05/13 02:30:18;;;;;;;1.48;1.20;;;20.00;62.10;;;;;;4992581;28;20041;-58
2023/05/13 02:32:44;;;;;;;2.80;1.92;;;20.10;62.10;;;;;;4992213;28;20032;-51
2023/05/13 02:35:09;;;;;;;3.33;1.90;;;20.10;62.10;;;;;;4990079;28;20046;-49
2023/05/13 02:37:35;;;;;;;2.83;1.98;;;20.00;62.00;;;;;;4985571;28;20041;-53
2023/05/13 02:40:02;;;;;;;2.90;1.63;;;20.00;62.00;;;;;;4992375;28;20062;-54
2023/05/13 02:42:28;;;;;;;1.95;1.75;;;20.00;62.00;;;;;;4990388;28;20039;-54
2023/05/13 02:44:54;;;;;;;2.17;1.50;;;20.00;62.00;;;;;;4990043;28;20049;-52
2023/05/13 02:47:19;;;;;;;2.85;1.77;;;20.00;62.00;;;;;;4990000;28;20092;-52
2023/05/13 02:49:45;;;;;;;2.08;1.88;;;20.00;62.00;;;;;;4988179;28;20075;-55
2023/05/13 02:52:10;;;;;;;1.85;1.63;;;20.00;62.00;;;;;;4992573;28;20040;-55
2023/05/13 02:54:36;;;;;;;2.78;1.85;;;20.00;62.60;;;;;;4988632;28;20038;-50
2023/05/13 02:57:01;;;;;;;2.70;1.85;;;20.00;62.00;;;;;;4988267;28;20030;-57
2023/05/13 02:59:27;;;;;;;2.10;1.60;;;20.00;61.90;;;;;;4989669;28;20736;-53
2023/05/13 03:01:52;;;;;;;11.77;2.25;;;20.00;62.00;;;;;;4987876;28;20088;-54
2023/05/13 03:04:18;;;;;;;1.80;1.70;;;20.00;62.00;;;;;;4987546;28;20046;-55
2023/05/13 03:06:43;;;;;;;3.15;1.75;;;20.00;62.00;;;;;;4991729;28;20062;-55
2023/05/13 03:09:09;;;;;;;1.65;1.55;;;20.00;62.00;;;;;;4984021;28;20578;-54
2023/05/13 03:11:34;;;;;;;2.38;2.00;;;20.00;61.90;;;;;;4986806;28;20042;-51
2023/05/13 03:14:00;;;;;;;2.63;1.48;;;20.00;61.90;;;;;;4986716;28;20037;-56
2023/05/13 03:16:26;;;;;;;1.90;1.70;;;20.00;61.90;;;;;;4987024;28;20692;-51
2023/05/13 03:18:51;;;;;;;2.63;2.00;;;20.00;61.90;;;;;;4990000;28;20120;-57
2023/05/13 03:21:17;;;;;;;1.95;1.77;;;20.00;62.00;;;;;;4991749;28;20503;-48
2023/05/13 03:23:42;;;;;;;2.92;1.42;;;20.00;61.90;;;;;;4991966;28;20683;-55
2023/05/13 03:26:08;;;;;;;2.00;1.77;;;20.00;61.90;;;;;;4986532;28;20037;-54
2023/05/13 03:28:33;;;;;;;1.80;1.70;;;20.00;61.90;;;;;;4986229;28;20038;-48
2023/05/13 03:30:59;;;;;;;2.75;1.58;;;20.00;62.50;;;;;;4984481;28;20128;-48
2023/05/13 03:33:25;;;;;;;2.17;1.98;;;20.00;61.80;;;;;;4986229;28;20835;-54
2023/05/13 03:35:50;;;;;;;1.90;1.60;;;20.00;61.80;;;;;;4992982;28;20037;-56
2023/05/13 03:38:16;;;;;;;1.88;1.65;;;20.00;61.80;;;;;;4983412;28;20069;-52
2023/05/13 03:40:41;;;;;;;1.95;1.50;;;20.00;61.70;;;;;;4987228;28;20298;-52
2023/05/13 03:43:07;;;;;;;1.70;1.48;;;20.00;61.70;;;;;;4987784;28;20061;-51
2023/05/13 03:45:32;;;;;;;2.13;1.92;;;20.00;61.70;;;;;;4988796;28;20121;-56
2023/05/13 03:47:58;;;;;;;2.10;1.90;;;20.00;61.70;;;;;;4989948;28;20443;-49
2023/05/13 03:50:23;;;;;;;1.70;1.60;;;20.00;61.70;;;;;;4989492;28;20030;-51
2023/05/13 03:52:49;;;;;;;3.95;1.80;;;20.00;61.70;;;;;;4992853;28;20030;-53
2023/05/13 03:55:14;;;;;;;1.67;1.58;;;20.00;61.60;;;;;;4991425;28;20169;-52
2023/05/13 03:57:43;;;;;;;1.67;1.58;;;20.00;61.60;;;;;;4988209;28;20084;-53
2023/05/13 04:00:10;;;;;;;1.77;1.55;;;20.00;61.60;;;;;;4984514;28;20092;-55
2023/05/13 04:02:35;;;;;;;1.60;1.50;;;20.00;61.60;;;;;;4988758;28;20141;-55
2023/05/13 04:05:01;;;;;;;3.63;1.40;;;20.00;61.60;;;;;;4982344;28;20605;-49
2023/05/13 04:07:26;;;;;;;2.88;2.00;;;20.00;61.50;;;;;;4984096;28;20246;-57
2023/05/13 04:09:52;;;;;;;1.48;1.33;;;20.00;61.60;;;;;;4984997;28;20040;-57
2023/05/13 04:12:17;;;;;;;1.85;1.63;;;20.00;61.60;;;;;;4985223;28;20030;-53
2023/05/13 04:14:43;;;;;;;2.00;1.60;;;20.00;61.50;;;;;;4989300;28;20038;-50
2023/05/13 04:17:08;;;;;;;2.08;1.60;;;20.00;61.50;;;;;;4988780;28;20026;-51
2023/05/13 04:19:34;;;;;;;2.47;1.70;;;20.00;61.50;;;;;;4990475;28;20085;-55
2023/05/13 04:21:59;;;;;;;1.58;1.48;;;20.00;61.50;;;;;;4987466;28;20384;-54
2023/05/13 04:24:25;;;;;;;1.65;1.27;;;20.00;61.40;;;;;;4989194;28;20038;-49
2023/05/13 04:26:50;;;;;;;1.60;1.40;;;20.00;61.40;;;;;;4993407;28;20026;-50
2023/05/13 04:29:16;;;;;;;1.77;1.58;;;20.00;61.40;;;;;;4989712;28;20045;-54
2023/05/13 04:31:42;;;;;;;1.60;1.50;;;20.00;61.30;;;;;;4982474;28;20030;-54
2023/05/13 04:34:08;;;;;;;1.70;1.58;;;20.00;61.30;;;;;;4992249;28;20026;-58
2023/05/13 04:36:33;;;;;;;2.17;1.63;;;20.00;61.20;;;;;;4984387;28;20517;-48
2023/05/13 04:38:59;;;;;;;1.92;1.77;;;20.10;61.20;;;;;;4987862;28;20038;-52
2023/05/13 04:41:25;;;;;;;1.50;1.40;;;20.10;61.10;;;;;;4986445;28;20034;-53
2023/05/13 04:43:50;;;;;;;1.80;1.70;;;20.10;61.10;;;;;;4991318;28;20026;-53
2023/05/13 04:46:16;;;;;;;2.33;1.50;;;20.10;60.90;;;;;;4987923;28;20042;-48
2023/05/13 04:48:41;;;;;;;2.25;1.88;;;20.10;61.00;;;;;;4992222;28;20121;-53
2023/05/13 04:51:07;;;;;;;2.35;1.63;;;20.20;61.00;;;;;;4982448;28;20035;-52
2023/05/13 04:53:33;;;;;;;1.52;1.42;;;20.20;60.90;;;;;;4989284;28;20150;-55
2023/05/13 04:55:59;;;;;;;3.75;1.73;;;20.20;61.00;;;;;;4984136;28;20060;-52
2023/05/13 04:58:28;;;;;;;2.35;1.42;;;20.20;61.00;;;;;;4984604;28;20030;-54
2023/05/13 05:00:54;;;;;;;2.88;1.50;;;20.20;61.10;;;;;;4983109;28;20034;-49
2023/05/13 05:03:20;;;;;;;2.47;1.60;;;20.20;61.30;;;;;;4989308;28;20038;-51
2023/05/13 05:05:45;;;;;;;2.28;1.90;;;20.20;61.30;;;;;;4982566;28;20038;-52
2023/05/13 05:08:11;;;;;;;3.08;1.80;;;20.20;61.20;;;;;;4991771;28;20045;-52
2023/05/13 05:10:36;;;;;;;1.70;1.55;;;20.20;61.30;;;;;;4987345;28;20079;-51
2023/05/13 05:13:02;;;;;;;1.33;1.15;;;20.20;61.30;;;;;;4989092;28;20126;-53
2023/05/13 05:15:28;;;;;;;2.60;1.67;;;20.20;61.30;;;;;;4991867;28;20407;-54
2023/05/13 05:17:54;;;;;;;3.35;1.60;;;20.20;61.30;;;;;;4997102;28;20034;-53
2023/05/13 05:20:20;;;;;;;1.83;1.38;;;20.30;61.40;;;;;;4991044;28;20054;-54
2023/05/13 05:22:45;;;;;;;1.92;1.52;;;20.30;61.40;;;;;;4989589;28;20655;-55
2023/05/13 05:25:11;;;;;;;3.10;1.70;;;20.30;61.40;;;;;;4988849;28;20034;-49
2023/05/13 05:27:36;;;;;;;1.92;1.20;;;20.30;61.40;;;;;;4992566;28;20133;-54
2023/05/13 05:30:02;;;;;;;2.63;1.70;;;20.30;61.40;;;;;;4991752;28;20044;-54
2023/05/13 05:32:28;;;;;;;1.50;1.40;;;20.30;61.40;;;;;;4986701;28;20467;-56
2023/05/13 05:34:53;;;;;;;2.75;1.65;;;20.30;61.40;;;;;;4988902;28;20095;-49
2023/05/13 05:37:19;;;;;;;1.80;1.45;;;20.30;61.40;;;;;;4988352;28;20593;-53
2023/05/13 05:39:44;;;;;;;1.98;1.67;;;20.30;61.40;;;;;;4991184;28;20034;-56
2023/05/13 05:42:10;;;;;;;2.53;1.63;;;20.30;61.40;;;;;;4990455;28;20538;-55
2023/05/13 05:44:36;;;;;;;1.65;1.25;;;20.30;61.40;;;;;;4990406;28;20034;-57
2023/05/13 05:47:01;;;;;;;3.53;1.65;;;20.30;61.40;;;;;;4995683;28;20030;-52
2023/05/13 05:49:27;;;;;;;1.80;1.60;;;20.30;61.40;;;;;;4988735;28;20138;-55
2023/05/13 05:51:52;;;;;;;3.72;1.55;;;20.30;61.40;;;;;;4985633;28;20034;-52
2023/05/13 05:54:18;;;;;;;1.63;1.40;;;20.30;61.40;;;;;;4989287;28;20038;-52
2023/05/13 05:56:43;;;;;;;1.73;1.50;;;20.30;61.30;;;;;;4987629;28;20031;-53
2023/05/13 05:59:09;;;;;;;2.05;1.35;;;20.30;61.30;;;;;;4989247;28;20031;-51
2023/05/13 06:01:35;;;;;;;1.40;1.30;;;20.30;61.40;;;;;;4990875;28;20023;-53
2023/05/13 06:04:02;;;;;;;1.55;1.30;;;20.30;61.30;;;;;;4987459;28;20030;-52
2023/05/13 06:06:27;;;;;;;1.58;1.42;;;20.30;61.30;;;;;;4987105;28;20196;-54
2023/05/13 06:08:53;;;;;;;2.05;1.55;;;20.30;61.30;;;;;;4991330;28;20538;-56
2023/05/13 06:11:18;;;;;;;2.42;1.83;;;20.30;61.30;;;;;;4986516;28;20566;-51
2023/05/13 06:13:44;;;;;;;1.63;1.52;;;20.30;61.30;;;;;;4992627;28;20046;-53
2023/05/13 06:16:09;;;;;;;1.63;1.50;;;20.30;61.30;;;;;;4993871;28;20034;-48
2023/05/13 06:18:35;;;;;;;1.30;1.20;;;20.30;61.30;;;;;;4993895;28;20137;-56
2023/05/13 06:21:00;;;;;;;1.80;1.40;;;20.30;61.30;;;;;;4988312;28;20784;-58
2023/05/13 06:23:26;;;;;;;3.08;1.70;;;20.30;61.30;;;;;;4990593;28;20057;-54
2023/05/13 06:25:51;;;;;;;1.77;1.63;;;20.30;61.40;;;;;;4988167;28;20050;-53
2023/05/13 06:28:17;;;;;;;1.90;1.45;;;20.30;61.30;;;;;;4988620;28;20030;-49
2023/05/13 06:30:43;;;;;;;2.08;1.40;;;20.30;61.40;;;;;;4984326;28;20038;-50
2023/05/13 06:33:11;;;;;;;1.65;1.30;;;20.30;61.30;;;;;;4983505;28;20160;-51
2023/05/13 06:35:37;;;;;;;1.98;1.40;;;20.30;61.40;;;;;;4985522;28;20858;-51
2023/05/13 06:38:02;;;;;;;1.38;1.27;;;20.30;61.40;;;;;;4991873;28;20037;-55
2023/05/13 06:40:28;;;;;;;1.52;1.20;;;20.30;61.40;;;;;;4990061;28;20038;-52
2023/05/13 06:42:53;;;;;;;3.15;1.48;;;20.30;61.30;;;;;;4993605;28;20034;-53
2023/05/13 06:45:22;;;;;;;2.78;1.50;;;20.30;61.40;;;;;;4992668;28;20034;-50
2023/05/13 06:47:51;;;;;;;1.60;1.33;;;20.30;61.40;;;;;;4992804;28;20095;-51
2023/05/13 06:50:17;;;;;;;7.78;1.52;;;20.30;61.50;;;;;;4988095;28;20411;-52
2023/05/13 06:52:43;;;;;;;2.33;1.70;;;20.30;61.50;;;;;;4987725;28;20550;-51
2023/05/13 06:55:09;;;;;;;2.38;1.73;;;20.30;61.50;;;;;;4988516;28;20034;-54
2023/05/13 06:57:35;;;;;;;3.00;1.45;;;20.30;61.70;;;;;;4990645;28;20190;-50
2023/05/13 07:00:00;;;;;;;2.85;1.67;;;20.30;61.80;;;;;;4985985;28;20041;-49
2023/05/13 07:02:26;;;;;;;3.30;1.60;;;20.30;61.80;;;;;;4984947;28;20508;-50
2023/05/13 07:04:52;;;;;;;3.28;1.58;;;20.30;62.00;;;;;;4991630;28;20411;-56
2023/05/13 07:07:17;;;;;;;7.20;2.03;;;20.30;62.00;;;;;;4988422;28;20034;-52
2023/05/13 07:09:43;;;;;;;8.77;1.95;;;20.30;62.00;;;;;;4990579;28;20455;-56
2023/05/13 07:12:09;;;;;;;5.53;1.50;;;20.30;62.10;;;;;;4991101;28;20026;-53
2023/05/13 07:14:35;;;;;;;6.82;1.90;;;20.20;62.00;;;;;;4991016;28;20746;-55
2023/05/13 07:17:01;;;;;;;4.70;2.05;;;20.30;62.20;;;;;;4988407;28;20061;-51
2023/05/13 07:19:26;;;;;;;3.50;1.95;;;20.30;62.50;;;;;;4984681;28;20031;-52
2023/05/13 07:21:52;;;;;;;5.75;1.77;;;20.30;63.30;;;;;;4986749;28;20444;-52
2023/05/13 07:24:17;;;;;;;5.28;2.08;;;20.30;63.00;;;;;;4987142;28;20576;-53
2023/05/13 07:26:42;;;;;;;6.03;2.30;;;20.30;63.10;;;;;;4987807;28;20058;-50
2023/05/13 07:29:08;;;;;;;4.45;1.98;;;20.30;63.30;;;;;;4982906;28;20492;-50
2023/05/13 07:31:34;;;;;;;4.03;1.83;;;20.30;63.70;;;;;;4985123;28;20026;-52
2023/05/13 07:33:59;;;;;;;4.20;2.28;;;20.30;64.00;;;;;;4987941;28;20034;-52
2023/05/13 07:36:25;;;;;;;4.32;2.05;;;20.30;63.80;;;;;;4990408;28;20149;-50
2023/05/13 07:38:50;;;;;;;2.97;1.90;;;20.30;64.20;;;;;;4991450;28;20022;-51
2023/05/13 07:41:16;;;;;;;4.90;2.17;;;20.30;63.90;;;;;;4991781;28;20030;-51
2023/05/13 07:43:41;;;;;;;2.67;1.80;;;20.30;63.80;;;;;;4993866;28;20099;-51
2023/05/13 07:46:07;;;;;;;4.20;2.45;;;20.30;63.80;;;;;;4989844;28;20049;-53
2023/05/13 07:48:33;;;;;;;3.35;1.85;;;20.30;63.80;;;;;;4991949;28;20034;-51
2023/05/13 07:50:58;;;;;;;2.50;1.95;;;20.30;63.60;;;;;;4987569;28;20028;-52
2023/05/13 07:53:25;;;;;;;7.90;1.98;;;20.30;63.80;;;;;;4987007;28;20527;-55
2023/05/13 07:55:50;;;;;;;3.38;1.55;;;20.30;63.70;;;;;;4985496;28;20087;-51
2023/05/13 07:58:17;;;;;;;3.85;2.00;;;20.30;63.60;;;;;;4983618;28;20068;-49
2023/05/13 08:00:42;;;;;;;4.88;2.08;;;20.30;63.50;;;;;;4982817;28;20034;-51
2023/05/13 08:03:08;;;;;;;6.00;2.33;;;20.30;63.50;;;;;;4987251;28;20030;-50
2023/05/13 08:05:34;;;;;;;3.08;2.00;;;20.30;63.40;;;;;;4987062;28;21514;-52
2023/05/13 08:08:00;;;;;;;2.15;1.95;;;20.30;63.30;;;;;;4987312;28;20223;-52
2023/05/13 08:10:26;;;;;;;4.60;1.90;;;20.30;63.40;;;;;;4990404;28;20041;-52
2023/05/13 08:12:56;;;;;;;3.85;1.98;;;20.30;63.40;;;;;;4987515;28;20108;-50
2023/05/13 08:15:25;;;;;;;5.82;2.00;;;20.30;63.30;;;;;;4998886;28;20069;-50
2023/05/13 08:17:52;;;;;;;3.92;2.13;;;20.30;63.30;;;;;;4988674;28;20592;-51
2023/05/13 08:20:18;;;;;;;2.75;2.30;;;20.30;63.20;;;;;;4983523;28;20025;-50
2023/05/13 08:22:44;;;;;;;4.03;2.10;;;20.30;63.20;;;;;;4984681;28;20119;-50
2023/05/13 08:25:14;;;;;;;2.83;1.95;;;20.30;63.20;;;;;;4983660;28;20438;-49
2023/05/13 08:27:39;;;;;;;3.83;2.10;;;20.30;63.10;;;;;;4982118;28;20038;-53
2023/05/13 08:30:05;;;;;;;3.33;2.08;;;20.20;63.00;;;;;;4984869;28;20513;-51
2023/05/13 08:32:31;;;;;;;3.88;2.22;;;20.20;63.00;;;;;;4984317;28;20093;-48
2023/05/13 08:34:56;;;;;;;4.25;2.13;;;20.30;63.00;;;;;;4988240;28;20026;-51
2023/05/13 08:37:22;;;;;;;2.88;2.20;;;20.20;62.90;;;;;;4989460;28;20274;-52
2023/05/13 08:39:47;;;;;;;6.38;2.03;;;20.30;62.90;;;;;;4992978;28;20102;-50
2023/05/13 08:42:18;;;;;;;3.90;2.05;;;20.20;62.80;;;;;;4990538;28;20026;-50
2023/05/13 08:44:43;;;;;;;2.47;2.03;;;20.30;62.80;;;;;;4988359;28;20327;-49
2023/05/13 08:47:31;;;;;;;2.22;2.03;;;20.20;62.70;;;;;;4985562;28;20092;-53
2023/05/13 08:49:57;;;;;;;2.90;1.58;;;20.20;62.70;;;;;;4986540;28;20097;-51
2023/05/13 08:52:22;;;;;;;2.92;2.20;;;20.20;62.70;;;;;;4990142;28;20049;-50
2023/05/13 08:54:49;;;;;;;3.13;2.55;;;20.20;62.70;;;;;;4992924;28;20053;-53
2023/05/13 08:57:15;;;;;;;4.03;2.38;;;20.20;62.60;;;;;;4984501;28;20507;-50
2023/05/13 08:59:40;;;;;;;3.72;2.03;;;20.20;62.60;;;;;;4988112;28;20027;-52
2023/05/13 09:02:07;;;;;;;3.20;1.95;;;20.30;62.60;;;;;;4990472;28;20076;-50
2023/05/13 09:04:36;;;;;;;4.38;2.30;;;20.20;62.50;;;;;;4989726;28;20132;-52
2023/05/13 09:07:03;;;;;;;3.58;2.10;;;20.20;62.50;;;;;;4992886;28;20561;-48
2023/05/13 09:09:29;;;;;;;2.60;1.85;;;20.20;62.50;;;;;;4991575;28;20089;-50
2023/05/13 09:11:55;;;;;;;3.35;2.25;;;20.20;62.50;;;;;;4996249;28;20026;-51
2023/05/13 09:14:20;;;;;;;2.47;2.28;;;20.20;62.50;;;;;;4989057;28;20068;-51
2023/05/13 09:16:46;;;;;;;3.05;2.00;;;20.20;62.40;;;;;;4986938;28;20129;-50
2023/05/13 09:19:12;;;;;;;2.42;2.20;;;20.20;62.30;;;;;;4989022;28;20038;-49
2023/05/13 09:21:38;;;;;;;2.97;2.13;;;20.30;62.30;;;;;;4985331;28;20773;-51
2023/05/13 09:24:09;;;;;;;2.67;2.47;;;20.20;62.20;;;;;;4987721;28;20026;-50
2023/05/13 09:26:34;;;;;;;2.33;1.73;;;20.20;62.20;;;;;;4987248;28;20574;-50
2023/05/13 09:29:23;;;;;;;2.58;2.38;;;20.20;62.20;;;;;;4990111;28;20137;-49
2023/05/13 09:31:54;;;;;;;3.75;2.10;;;20.30;62.20;;;;;;4992126;28;20044;-51
2023/05/13 09:34:25;;;;;;;5.32;2.13;;;20.20;62.00;;;;;;4985980;28;20130;-51
2023/05/13 09:37:02;;;;;;;2.42;2.22;;;20.30;62.20;;;;;;4991944;28;20080;-52
2023/05/13 09:39:29;;;;;;;5.00;2.35;;;20.30;62.20;;;;;;4990151;28;20030;-49
2023/05/13 09:41:55;;;;;;;3.90;2.03;;;20.30;62.20;;;;;;4996622;28;20030;-51
2023/05/13 09:44:21;;;;;;;5.85;2.58;;;20.30;62.30;;;;;;4992294;28;20033;-50
2023/05/13 09:46:47;;;;;;;3.65;2.20;;;20.20;62.20;;;;;;4994740;28;20180;-48
2023/05/13 09:49:14;;;;;;;2.63;2.30;;;20.20;62.20;;;;;;4988921;28;20109;-51
2023/05/13 09:51:42;;;;;;;3.55;2.42;;;20.20;62.90;;;;;;4987623;28;20041;-49
2023/05/13 09:54:08;;;;;;;6.25;2.35;;;20.30;62.40;;;;;;4988626;28;20061;-51
2023/05/13 09:56:35;;;;;;;5.45;2.60;;;20.30;62.30;;;;;;4984015;28;20030;-51
2023/05/13 09:59:03;;;;;;;5.45;2.67;;;20.20;62.20;;;;;;4988306;28;20054;-51
2023/05/13 10:01:29;;;;;;;4.30;2.40;;;20.30;62.30;;;;;;4989046;28;20045;-51
2023/05/13 10:03:58;;;;;;;7.47;2.25;;;20.30;62.30;;;;;;4989533;28;20116;-48
2023/05/13 10:06:25;;;;;;;4.10;2.40;;;20.30;62.30;;;;;;4991445;28;20046;-51
2023/05/13 10:08:52;;;;;;;8.20;3.22;;;20.20;62.80;;;;;;4990684;28;20037;-47
2023/05/13 10:11:18;;;;;;;8.70;2.60;;;20.20;62.10;;;;;;4986158;28;20038;-51
2023/05/13 10:13:51;;;;;;;4.45;2.60;;;20.30;62.20;;;;;;4990228;28;20156;-49
2023/05/13 10:16:17;;;;;;;5.72;2.70;;;20.30;62.10;;;;;;4985091;28;20037;-51
2023/05/13 10:18:44;;;;;;;7.60;2.90;;;20.30;62.10;;;;;;4988564;28;20035;-52
2023/05/13 10:21:11;;;;;;;9.75;2.67;;;20.20;62.00;;;;;;4987225;28;20474;-51
2023/05/13 10:23:37;;;;;;;7.57;3.13;;;20.20;62.00;;;;;;4987732;28;20042;-55
2023/05/13 10:26:04;;;;;;;10.20;3.08;;;20.20;61.90;;;;;;4988807;28;20430;-52
2023/05/13 10:28:31;;;;;;;4.57;2.50;;;20.20;61.80;;;;;;4988366;28;20046;-53
2023/05/13 10:30:57;;;;;;;11.10;3.70;;;20.20;62.50;;;;;;4990538;28;20030;-49
2023/05/13 10:33:23;;;;;;;14.30;4.85;;;20.20;61.90;;;;;;4985235;28;20057;-49
2023/05/13 10:36:11;;;;;;;14.45;4.25;;;20.20;62.20;;;;;;4987549;28;20045;-52
2023/05/13 10:38:51;;;;;;;12.65;3.90;;;20.20;62.30;;;;;;4992905;28;20842;-54
2023/05/13 10:41:49;;;;;;;13.77;4.25;;;20.20;62.20;;;;;;4991741;28;20511;-50
2023/05/13 10:44:18;;;;;;;11.75;3.47;;;20.20;62.20;;;;;;4987950;28;20026;-48
2023/05/13 10:46:47;;;;;;;10.82;3.83;;;20.20;62.20;;;;;;4985079;28;20407;-50
2023/05/13 10:49:16;;;;;;;13.23;4.53;;;20.20;62.10;;;;;;4988093;28;20052;-51
2023/05/13 10:51:47;;;;;;;11.40;4.32;;;20.20;62.00;;;;;;4986630;28;20046;-55
2023/05/13 10:54:20;;;;;;;9.65;3.88;;;20.20;62.00;;;;;;4989762;28;20030;-52
2023/05/13 10:56:56;;;;;;;12.68;3.58;;;20.20;61.90;;;;;;4988781;28;20029;-49
2023/05/13 10:59:21;;;;;;;8.70;3.58;;;20.20;61.80;;;;;;4986071;28;20354;-48
2023/05/13 11:01:48;;;;;;;10.38;3.90;;;20.20;61.70;;;;;;4987834;28;20041;-49
2023/05/13 11:04:15;;;;;;;8.63;4.13;;;20.20;61.70;;;;;;4987518;28;20108;-50
2023/05/13 11:06:43;;;;;;;8.15;3.58;;;20.20;61.70;;;;;;4988869;28;20042;-48
2023/05/13 11:09:13;;;;;;;10.40;3.58;;;20.20;61.70;;;;;;4994548;28;20872;-50
2023/05/13 11:11:39;;;;;;;7.70;3.72;;;20.20;61.60;;;;;;4987913;28;20069;-52
2023/05/13 11:14:15;;;;;;;14.73;4.63;;;20.20;61.60;;;;;;4989870;28;20033;-51
2023/05/13 11:16:46;;;;;;;13.85;4.43;;;20.10;61.50;;;;;;4989625;28;20076;-55
2023/05/13 11:19:20;;;;;;;11.25;4.50;;;20.10;61.50;;;;;;4986360;28;20030;-53
2023/05/13 11:21:49;;;;;;;13.57;3.50;;;20.20;61.60;;;;;;4993375;28;20049;-54
2023/05/13 11:24:20;;;;;;;9.82;4.28;;;20.10;61.50;;;;;;4990262;28;20411;-52
2023/05/13 11:26:55;;;;;;;12.07;3.88;;;20.10;61.50;;;;;;4989916;28;20451;-53
2023/05/13 11:29:28;;;;;;;10.52;4.75;;;20.10;61.50;;;;;;4985285;28;20037;-51
2023/05/13 11:31:57;;;;;;;14.93;4.65;;;20.10;61.50;;;;;;4989433;28;20502;-53
2023/05/13 11:34:23;;;;;;;20.75;4.95;;;20.10;61.50;;;;;;4992640;28;20632;-54
2023/05/13 11:36:50;;;;;;;15.25;4.45;;;20.10;61.70;;;;;;4990351;28;20030;-51
2023/05/13 11:39:18;;;;;;;16.38;4.45;;;20.10;61.90;;;;;;4994325;28;20113;-54
2023/05/13 11:41:51;;;;;;;14.27;4.85;;;20.20;62.00;;;;;;4991117;28;20133;-51
2023/05/13 11:44:21;;;;;;;13.38;4.75;;;20.20;62.10;;;;;;4990853;28;20145;-53
2023/05/13 11:47:00;;;;;;;12.48;4.28;;;20.20;62.10;;;;;;4987587;28;20101;-55
2023/05/13 11:49:29;;;;;;;12.52;4.97;;;20.20;62.10;;;;;;4984992;28;20033;-51
2023/05/13 11:51:57;;;;;;;14.90;4.72;;;20.20;62.20;;;;;;4986258;28;20037;-52
2023/05/13 11:54:22;;;;;;;15.38;4.35;;;20.20;62.30;;;;;;4989313;28;20022;-51
2023/05/13 11:56:48;;;;;;;14.05;4.07;;;20.20;62.40;;;;;;4984033;28;20057;-51
2023/05/13 11:59:14;;;;;;;12.98;4.63;;;20.20;62.40;;;;;;4985563;28;20026;-52
2023/05/13 12:01:39;;;;;;;15.48;4.60;;;20.20;62.50;;;;;;4984442;28;20062;-53
2023/05/13 12:04:06;;;;;;;13.98;4.32;;;20.20;62.50;;;;;;4990557;28;20021;-49
2023/05/13 12:06:32;;;;;;;11.70;4.00;;;20.20;62.40;;;;;;4988559;28;20116;-50
2023/05/13 12:09:04;;;;;;;11.25;3.90;;;20.20;62.40;;;;;;4994025;28;20037;-52
2023/05/13 12:11:30;;;;;;;9.98;3.92;;;20.20;62.30;;;;;;4988037;28;20078;-50
2023/05/13 12:13:56;;;;;;;11.60;4.45;;;20.20;62.30;;;;;;4983411;28;20104;-50
2023/05/13 12:16:22;;;;;;;13.00;3.58;;;20.20;62.40;;;;;;4986854;28;20511;-50
2023/05/13 12:18:58;;;;;;;11.02;3.50;;;20.20;62.40;;;;;;4986798;28;20035;-52
2023/05/13 12:21:23;;;;;;;10.20;4.20;;;20.20;62.40;;;;;;4986506;28;20109;-49
2023/05/13 12:23:49;;;;;;;8.95;3.85;;;20.20;62.60;;;;;;4989342;28;20084;-51
2023/05/13 12:26:14;;;;;;;9.48;4.07;;;20.30;62.60;;;;;;4988241;28;20040;-51
2023/05/13 12:28:40;;;;;;;9.75;3.97;;;20.30;62.90;;;;;;4982978;28;20062;-48
2023/05/13 12:31:05;;;;;;;9.15;3.72;;;20.30;63.30;;;;;;4981827;28;20428;-52
2023/05/13 12:33:42;;;;;;;12.88;4.18;;;20.30;63.60;;;;;;4989033;28;20049;-50
2023/05/13 12:36:37;;;;;;;9.35;3.22;;;20.30;63.90;;;;;;4986819;28;20558;-48
2023/05/13 12:39:09;;;;;;;14.93;4.13;;;20.30;63.70;;;;;;4986548;28;20037;-49
2023/05/13 12:41:37;;;;;;;6.15;3.78;;;20.30;64.10;;;;;;4982963;28;20558;-52
2023/05/13 12:44:12;;;;;;;8.70;4.32;;;20.30;63.70;;;;;;4982158;28;20381;-51
2023/05/13 12:46:38;;;;;;;9.23;3.22;;;20.30;63.70;;;;;;4988206;28;20073;-51